This is the latest recevied weather packets stored in our database for station/object WX7FGZ-3. If no packets are shown the sender has not sent any weather packets the latest 10 day(s).
| Time | Temp. | Humidity | Pressure | Rain* | Wind** | Luminosity | Snow |
|---|---|---|---|---|---|---|---|
| 1777579445 | 16.11° C | 21% | 1010.2 hPa | 0 mm | - | - | - |
| 1777579145 | 16.67° C | 20% | 1010.1 hPa | 0 mm | - | - | - |
| 1777578845 | 16.11° C | 21% | 1010.1 hPa | 0 mm | - | - | - |
| 1777578544 | 16.11° C | 20% | 1010.2 hPa | 0 mm | - | - | - |
| 1777578243 | 16.11° C | 21% | 1010.4 hPa | 0 mm | - | - | - |
| 1777577943 | 16.11° C | 20% | 1010.4 hPa | 0 mm | - | - | - |
| 1777577643 | 16.11° C | 21% | 1010.5 hPa | 0 mm | - | - | - |
| 1777577342 | 16.11° C | 20% | 1010.4 hPa | 0 mm | - | - | - |
| 1777577042 | 16.11° C | 20% | 1010.4 hPa | 0 mm | - | - | - |
| 1777576742 | 16.11° C | 23% | 1010.5 hPa | 0 mm | - | - | - |
| 1777576442 | 16.11° C | 23% | 1010.5 hPa | 0 mm | - | - | - |
| 1777574940 | 15.56° C | 22% | 1010.9 hPa | 0 mm | - | - | - |
| 1777574040 | 15.56° C | 24% | 1011 hPa | 0 mm | - | - | - |
| 1777569535 | 14.44° C | 25% | 1011.8 hPa | 0 mm | - | - | - |
| 1777569235 | 14.44° C | 24% | 1011.8 hPa | 0 mm | - | - | - |
| 1777568934 | 14.44° C | 24% | 1011.7 hPa | 0 mm | - | - | - |
| 1777568634 | 14.44° C | 27% | 1011.7 hPa | 0 mm | - | - | - |
| 1777568334 | 13.89° C | 24% | 1011.7 hPa | 0 mm | - | - | - |
| 1777568034 | 14.44° C | 25% | 1011.6 hPa | 0 mm | - | - | - |
| 1777567734 | 13.89° C | 25% | 1011.7 hPa | 0 mm | - | - | - |
| 1777567433 | 13.89° C | 25% | 1011.8 hPa | 0 mm | - | - | - |
| 1777567133 | 13.89° C | 25% | 1011.7 hPa | 0 mm | - | - | - |
| 1777566532 | 13.89° C | 25% | 1011.9 hPa | 0 mm | - | - | - |
| 1777566232 | 13.89° C | 25% | 1011.9 hPa | 0 mm | - | - | - |
| 1777565931 | 13.89° C | 24% | 1011.8 hPa | 0 mm | - | - | - |
* Rain latest hour (hover to see other rain measurements)
** Current wind speed in m/s (hover to see current wind gust speed)